createdAt,value
2019-01-09T00:01:02.442Z,2.50
2019-01-09T00:03:30.893Z,2.60
2019-01-09T00:05:59.589Z,2.60
2019-01-09T00:08:28.178Z,2.70
2019-01-09T00:10:56.714Z,2.80
2019-01-09T00:13:25.161Z,2.80
2019-01-09T00:15:53.703Z,2.80
2019-01-09T00:18:22.218Z,2.80
2019-01-09T00:20:50.745Z,2.70
2019-01-09T00:23:19.204Z,2.60
2019-01-09T00:25:47.758Z,2.50
2019-01-09T00:28:16.275Z,2.50
2019-01-09T00:30:44.885Z,2.50
2019-01-09T00:33:13.392Z,2.50
2019-01-09T00:35:41.873Z,2.40
2019-01-09T00:38:10.457Z,2.40
2019-01-09T00:40:39.063Z,2.40
2019-01-09T00:43:07.579Z,2.50
2019-01-09T00:45:36.087Z,2.60
2019-01-09T00:48:04.692Z,2.70
2019-01-09T00:50:33.279Z,2.70
2019-01-09T00:53:01.818Z,2.80
2019-01-09T00:55:30.509Z,2.80
2019-01-09T00:57:59.103Z,2.70
2019-01-09T01:00:27.787Z,2.70
2019-01-09T01:03:23.516Z,2.80
2019-01-09T01:06:11.407Z,2.80
2019-01-09T01:09:15.916Z,2.90
2019-01-09T01:11:59.287Z,3.00
2019-01-09T01:14:59.865Z,3.00
2019-01-09T01:18:04.681Z,3.00
2019-01-09T01:20:48.125Z,2.90
2019-01-09T01:23:36.581Z,2.90
2019-01-09T01:26:24.855Z,2.80
2019-01-09T01:28:56.691Z,2.70
2019-01-09T01:31:44.813Z,2.60
2019-01-09T01:34:16.348Z,2.50
2019-01-09T01:37:13.580Z,2.40
2019-01-09T01:39:56.849Z,2.40
2019-01-09T01:42:47.673Z,2.40
2019-01-09T01:45:35.848Z,2.30
2019-01-09T01:48:13.404Z,2.40
2019-01-09T01:51:01.499Z,2.50
2019-01-09T01:53:46.259Z,2.50
2019-01-09T01:56:37.312Z,2.40
2019-01-09T01:59:08.861Z,2.50
2019-01-09T02:01:55.256Z,2.70
2019-01-09T02:04:39.120Z,2.70
2019-01-09T02:07:36.361Z,2.80
2019-01-09T02:10:23.027Z,2.90
2019-01-09T02:13:10.993Z,2.90
2019-01-09T02:15:59.309Z,2.90
2019-01-09T02:18:29.979Z,3.00
2019-01-09T02:21:01.572Z,3.00
2019-01-09T02:23:47.932Z,3.00
2019-01-09T02:26:43.964Z,2.90
2019-01-09T02:29:27.247Z,2.90
2019-01-09T02:32:13.636Z,2.80
2019-01-09T02:34:42.181Z,2.80
2019-01-09T02:37:10.650Z,2.80
2019-01-09T02:39:39.101Z,2.60
2019-01-09T02:42:07.616Z,2.50
2019-01-09T02:44:36.088Z,2.60
2019-01-09T02:47:04.568Z,2.70
2019-01-09T02:49:33.004Z,2.70
2019-01-09T02:52:01.469Z,2.70
2019-01-09T02:54:30.002Z,2.70
2019-01-09T02:56:58.461Z,2.70
2019-01-09T02:59:26.904Z,2.80
2019-01-09T03:01:55.358Z,2.90
2019-01-09T03:04:23.826Z,2.80
2019-01-09T03:06:52.270Z,2.90
2019-01-09T03:09:20.736Z,2.80
2019-01-09T03:11:49.180Z,2.70
2019-01-09T03:14:17.719Z,2.60
2019-01-09T03:16:46.222Z,2.60
2019-01-09T03:19:14.696Z,2.60
2019-01-09T03:21:43.271Z,2.70
2019-01-09T03:24:11.749Z,2.70
2019-01-09T03:26:40.200Z,2.80
2019-01-09T03:29:08.731Z,2.70
2019-01-09T03:31:37.251Z,2.70
2019-01-09T03:34:05.794Z,2.90
2019-01-09T03:36:34.305Z,2.90
2019-01-09T03:39:03.445Z,2.90
2019-01-09T03:41:31.963Z,2.80
2019-01-09T03:44:00.751Z,2.80
2019-01-09T03:46:29.367Z,2.80
2019-01-09T03:48:57.818Z,2.90
2019-01-09T03:51:26.296Z,3.00
2019-01-09T03:53:54.736Z,3.00
2019-01-09T03:56:24.204Z,3.10
2019-01-09T03:58:52.647Z,3.10
2019-01-09T04:01:21.103Z,3.10
2019-01-09T04:03:49.543Z,3.10
2019-01-09T04:06:18.016Z,3.10
2019-01-09T04:08:46.830Z,3.00
2019-01-09T04:11:15.287Z,3.00
2019-01-09T04:13:43.793Z,2.90
2019-01-09T04:16:12.254Z,2.80
2019-01-09T04:18:40.692Z,2.70
2019-01-09T04:21:09.147Z,2.70
2019-01-09T04:23:37.586Z,2.80
2019-01-09T04:26:06.062Z,2.80
2019-01-09T04:28:34.625Z,2.80
2019-01-09T04:31:03.185Z,2.70
2019-01-09T04:33:31.653Z,2.60
2019-01-09T04:36:00.097Z,2.60
2019-01-09T04:38:28.562Z,2.50
2019-01-09T04:40:56.996Z,2.50
2019-01-09T04:43:25.769Z,2.40
2019-01-09T04:45:54.196Z,2.50
2019-01-09T04:48:22.655Z,2.60
2019-01-09T04:50:51.094Z,2.60
2019-01-09T04:53:19.549Z,2.60
2019-01-09T04:55:48.030Z,2.50
2019-01-09T04:58:16.499Z,2.50
2019-01-09T05:00:45.009Z,2.40
2019-01-09T05:03:13.515Z,2.30
2019-01-09T05:05:42.041Z,2.30
2019-01-09T05:08:10.649Z,2.30
2019-01-09T05:10:39.121Z,2.30
2019-01-09T05:13:07.558Z,2.30
2019-01-09T05:15:36.014Z,2.30
2019-01-09T05:18:04.445Z,2.30
2019-01-09T05:20:32.913Z,2.40
2019-01-09T05:23:01.345Z,2.40
2019-01-09T05:25:29.788Z,2.50
2019-01-09T05:27:58.232Z,2.50
2019-01-09T05:30:26.796Z,2.40
2019-01-09T05:32:55.234Z,2.40
2019-01-09T05:35:23.667Z,2.40
2019-01-09T05:37:52.249Z,2.40
2019-01-09T05:40:20.694Z,2.30
2019-01-09T05:42:49.165Z,2.10
2019-01-09T05:45:18.052Z,2.10
2019-01-09T05:47:46.524Z,2.10
2019-01-09T05:50:15.034Z,2.00
2019-01-09T05:52:43.487Z,2.00
2019-01-09T05:55:11.942Z,1.90
2019-01-09T05:57:40.396Z,2.00
2019-01-09T06:00:09.473Z,2.00
2019-01-09T06:02:37.931Z,2.00
2019-01-09T06:05:06.436Z,1.80
2019-01-09T06:07:34.871Z,1.80
2019-01-09T06:10:03.907Z,1.90
2019-01-09T06:12:32.371Z,1.80
2019-01-09T06:15:00.888Z,1.80
2019-01-09T06:17:29.328Z,1.80
2019-01-09T06:19:57.783Z,1.80
2019-01-09T06:22:26.223Z,1.80
2019-01-09T06:24:54.751Z,1.80
2019-01-09T06:27:23.198Z,1.70
2019-01-09T06:29:51.729Z,1.70
2019-01-09T06:32:20.169Z,1.70
2019-01-09T06:34:48.647Z,1.70
2019-01-09T06:37:17.088Z,1.60
2019-01-09T06:39:45.822Z,1.70
2019-01-09T06:42:14.348Z,1.70
2019-01-09T06:44:42.794Z,1.70
2019-01-09T06:47:12.788Z,1.80
2019-01-09T06:49:41.220Z,1.70
2019-01-09T06:52:09.675Z,1.70
2019-01-09T06:54:38.130Z,1.60
2019-01-09T06:57:06.699Z,1.60
2019-01-09T06:59:35.140Z,1.60
2019-01-09T07:02:03.592Z,1.70
2019-01-09T07:04:32.080Z,1.70
2019-01-09T07:07:00.612Z,1.70
2019-01-09T07:09:29.036Z,1.70
2019-01-09T07:11:57.467Z,1.80
2019-01-09T07:14:25.920Z,1.90
2019-01-09T07:16:54.653Z,1.90
2019-01-09T07:19:23.107Z,1.80
2019-01-09T07:21:51.548Z,1.70
2019-01-09T07:24:20.033Z,1.70
2019-01-09T07:26:48.476Z,1.70
2019-01-09T07:29:16.947Z,1.80
2019-01-09T07:31:45.464Z,1.80
2019-01-09T07:34:13.916Z,1.90
2019-01-09T07:36:42.365Z,1.90
2019-01-09T07:39:10.840Z,1.90
2019-01-09T07:41:39.280Z,2.00
2019-01-09T07:44:07.803Z,2.00
2019-01-09T07:46:36.245Z,2.00
2019-01-09T07:49:04.692Z,2.00
2019-01-09T07:51:33.224Z,2.10
2019-01-09T07:54:01.660Z,2.00
2019-01-09T07:56:30.123Z,2.10
2019-01-09T07:58:58.560Z,2.10
2019-01-09T08:01:27.016Z,2.10
2019-01-09T08:03:55.448Z,2.10
2019-01-09T08:06:23.917Z,2.20
2019-01-09T08:08:52.360Z,2.20
2019-01-09T08:11:20.826Z,2.30
2019-01-09T08:13:49.312Z,2.30
2019-01-09T08:16:17.768Z,2.40
2019-01-09T08:18:48.285Z,2.40
2019-01-09T08:21:16.500Z,2.40
2019-01-09T08:23:44.937Z,2.50
2019-01-09T08:26:13.467Z,2.60
2019-01-09T08:28:41.921Z,2.60
2019-01-09T08:31:10.435Z,2.60
2019-01-09T08:33:38.906Z,2.60
2019-01-09T08:36:07.368Z,2.60
2019-01-09T08:38:35.819Z,2.50
2019-01-09T08:41:04.328Z,2.60
2019-01-09T08:43:32.779Z,2.60
2019-01-09T08:46:01.220Z,2.50
2019-01-09T08:48:29.685Z,2.50
2019-01-09T08:50:58.127Z,2.40
2019-01-09T08:53:26.604Z,2.40
2019-01-09T08:55:55.153Z,2.40
2019-01-09T08:58:23.591Z,2.60
2019-01-09T09:00:52.049Z,2.60
2019-01-09T09:03:20.569Z,2.70
2019-01-09T09:05:49.028Z,2.70
2019-01-09T09:08:19.108Z,2.70
2019-01-09T09:10:47.638Z,2.80
2019-01-09T09:13:33.472Z,2.80
2019-01-09T09:16:01.935Z,2.70
2019-01-09T09:18:30.447Z,2.70
2019-01-09T09:20:58.913Z,2.90
2019-01-09T09:23:27.343Z,2.80
2019-01-09T09:25:55.806Z,2.80
2019-01-09T09:28:24.239Z,2.70
2019-01-09T09:30:53.029Z,2.70
2019-01-09T09:33:21.469Z,2.70
2019-01-09T09:35:49.991Z,2.80
2019-01-09T09:38:20.622Z,3.00
2019-01-09T09:40:48.710Z,3.00
2019-01-09T09:43:17.282Z,3.00
2019-01-09T09:45:45.703Z,3.10
2019-01-09T09:48:14.161Z,3.10
2019-01-09T09:50:42.596Z,3.10
2019-01-09T09:53:11.142Z,3.30
2019-01-09T09:55:39.581Z,3.30
2019-01-09T09:58:08.196Z,3.20
2019-01-09T10:00:36.756Z,3.10
2019-01-09T10:03:05.356Z,3.00
2019-01-09T10:05:33.816Z,3.00
2019-01-09T10:08:02.411Z,3.00
2019-01-09T10:10:30.880Z,3.00
2019-01-09T10:12:59.333Z,3.20
2019-01-09T10:15:27.776Z,3.30
2019-01-09T10:17:56.238Z,3.40
2019-01-09T10:20:24.671Z,3.50
2019-01-09T10:22:53.760Z,3.60
2019-01-09T10:25:22.306Z,3.50
2019-01-09T10:27:50.872Z,3.50
2019-01-09T10:30:21.624Z,3.50
2019-01-09T10:32:50.473Z,3.50
2019-01-09T10:35:18.933Z,3.60
2019-01-09T10:37:47.821Z,3.80
2019-01-09T10:40:21.514Z,4.00
2019-01-09T10:42:50.116Z,3.90
2019-01-09T10:45:20.970Z,3.80
2019-01-09T10:47:49.415Z,3.80
2019-01-09T10:50:18.405Z,3.80
2019-01-09T10:52:47.217Z,3.90
2019-01-09T10:55:18.091Z,4.00
2019-01-09T10:57:46.788Z,4.10
2019-01-09T11:00:20.767Z,4.00
2019-01-09T11:02:49.601Z,4.00
2019-01-09T11:05:18.288Z,4.00
2019-01-09T11:07:46.886Z,3.90
2019-01-09T11:10:17.963Z,3.90
2019-01-09T11:12:46.489Z,3.90
2019-01-09T11:15:15.455Z,3.90
2019-01-09T11:17:43.999Z,3.90
2019-01-09T11:20:15.084Z,4.00
2019-01-09T11:22:43.592Z,4.00
2019-01-09T11:25:17.850Z,4.10
2019-01-09T11:27:46.421Z,4.30
2019-01-09T11:30:16.939Z,4.70
2019-01-09T11:32:45.383Z,4.90
2019-01-09T11:35:19.479Z,5.10
2019-01-09T11:37:48.210Z,5.00
2019-01-09T11:40:18.896Z,5.10
2019-01-09T11:42:47.421Z,5.10
2019-01-09T11:45:18.480Z,5.00
2019-01-09T11:47:47.569Z,5.00
2019-01-09T11:50:16.764Z,5.20
2019-01-09T11:52:45.346Z,5.00
2019-01-09T11:55:15.141Z,4.90
2019-01-09T11:57:43.719Z,5.00
2019-01-09T12:00:26.366Z,5.10
2019-01-09T12:02:55.328Z,5.20
2019-01-09T12:05:23.916Z,5.20
2019-01-09T12:07:52.447Z,5.10
2019-01-09T12:10:30.039Z,5.10
2019-01-09T12:12:53.230Z,5.10
2019-01-09T12:15:21.928Z,5.00
2019-01-09T12:17:50.455Z,5.10
2019-01-09T12:20:20.031Z,5.20
2019-01-09T12:22:49.023Z,5.40
2019-01-09T12:25:17.447Z,5.40
2019-01-09T12:27:45.971Z,5.40
2019-01-09T12:30:26.554Z,5.50
2019-01-09T12:32:55.148Z,5.30
2019-01-09T12:35:23.651Z,5.40
2019-01-09T12:37:52.277Z,5.60
2019-01-09T12:40:20.861Z,5.70
2019-01-09T12:42:49.401Z,5.50
2019-01-09T12:45:18.173Z,5.30
2019-01-09T12:47:46.772Z,5.20
2019-01-09T12:50:20.847Z,5.20
2019-01-09T12:52:49.360Z,5.00
2019-01-09T12:55:17.876Z,4.90
2019-01-09T12:57:46.316Z,4.90
2019-01-09T13:00:19.985Z,4.80
2019-01-09T13:02:48.425Z,4.80
2019-01-09T13:05:17.216Z,4.70
2019-01-09T13:07:45.656Z,4.60
2019-01-09T13:10:14.448Z,4.70
2019-01-09T13:12:43.184Z,4.90
2019-01-09T13:15:12.157Z,5.00
2019-01-09T13:17:40.592Z,5.10
2019-01-09T13:20:14.060Z,5.20
2019-01-09T13:22:42.573Z,5.20
2019-01-09T13:25:12.740Z,5.20
2019-01-09T13:27:41.172Z,5.40
2019-01-09T13:30:13.296Z,5.50
2019-01-09T13:32:41.798Z,5.50
2019-01-09T13:35:10.444Z,5.40
2019-01-09T13:37:38.921Z,5.50
2019-01-09T13:40:16.228Z,5.40
2019-01-09T13:42:44.701Z,5.30
2019-01-09T13:45:15.768Z,5.50
2019-01-09T13:47:44.671Z,5.50
2019-01-09T13:50:15.913Z,5.30
2019-01-09T13:52:44.645Z,5.30
2019-01-09T13:55:15.024Z,5.10
2019-01-09T13:57:43.720Z,5.10
2019-01-09T14:00:15.391Z,5.30
2019-01-09T14:02:43.912Z,5.30
2019-01-09T14:05:12.680Z,5.50
2019-01-09T14:07:41.278Z,6.00
2019-01-09T14:10:15.088Z,6.40
2019-01-09T14:12:43.586Z,6.20
2019-01-09T14:15:15.200Z,5.50
2019-01-09T14:17:43.661Z,5.20
2019-01-09T14:20:13.236Z,5.30
2019-01-09T14:22:41.740Z,5.20
2019-01-09T14:25:12.228Z,5.20
2019-01-09T14:27:40.645Z,5.10
2019-01-09T14:30:23.528Z,5.00
2019-01-09T14:32:51.973Z,4.90
2019-01-09T14:35:20.496Z,5.00
2019-01-09T14:37:49.232Z,5.00
2019-01-09T14:40:19.320Z,5.00
2019-01-09T14:42:48.004Z,5.00
2019-01-09T14:45:17.603Z,4.90
2019-01-09T14:47:46.321Z,4.80
2019-01-09T14:50:17.591Z,4.70
2019-01-09T14:52:47.030Z,4.70
2019-01-09T14:55:16.062Z,4.60
2019-01-09T14:57:45.645Z,4.60
2019-01-09T15:00:17.343Z,4.60
2019-01-09T15:02:45.805Z,4.60
2019-01-09T15:05:14.653Z,4.60
2019-01-09T15:07:43.134Z,4.50
2019-01-09T15:10:14.719Z,4.40
2019-01-09T15:12:43.320Z,4.40
2019-01-09T15:15:14.894Z,4.40
2019-01-09T15:17:43.425Z,4.40
2019-01-09T15:20:14.681Z,4.40
2019-01-09T15:22:43.279Z,4.40
2019-01-09T15:25:13.156Z,4.40
2019-01-09T15:27:41.613Z,4.40
2019-01-09T15:30:22.132Z,4.40
2019-01-09T15:32:50.828Z,4.40
2019-01-09T15:35:19.893Z,4.40
2019-01-09T15:37:48.347Z,4.30
2019-01-09T15:40:28.268Z,4.30
2019-01-09T15:42:57.131Z,4.30
2019-01-09T15:45:25.914Z,4.10
2019-01-09T15:47:54.381Z,4.00
2019-01-09T15:50:27.638Z,4.00
2019-01-09T15:52:56.221Z,3.90
2019-01-09T15:55:24.951Z,3.80
2019-01-09T15:57:54.529Z,3.70
2019-01-09T16:00:34.496Z,3.70
2019-01-09T16:03:03.587Z,3.60
2019-01-09T16:05:32.080Z,3.50
2019-01-09T16:08:00.751Z,3.50
2019-01-09T16:10:29.212Z,3.50
2019-01-09T16:12:57.661Z,3.60
2019-01-09T16:15:26.199Z,3.50
2019-01-09T16:17:54.637Z,3.40
2019-01-09T16:20:23.749Z,3.30
2019-01-09T16:22:52.257Z,3.20
2019-01-09T16:25:20.714Z,3.10
2019-01-09T16:27:49.223Z,3.10
2019-01-09T16:30:34.325Z,3.10
2019-01-09T16:33:03.193Z,3.20
2019-01-09T16:35:34.279Z,3.20
2019-01-09T16:38:02.745Z,3.30
2019-01-09T16:40:31.405Z,3.30
2019-01-09T16:42:59.939Z,3.20
2019-01-09T16:45:28.515Z,3.10
2019-01-09T16:47:57.152Z,3.10
2019-01-09T16:50:26.031Z,3.10
2019-01-09T16:52:54.914Z,3.10
2019-01-09T16:55:23.725Z,3.00
2019-01-09T16:57:52.263Z,3.00
2019-01-09T17:00:26.530Z,3.00
2019-01-09T17:02:55.131Z,2.90
2019-01-09T17:05:23.716Z,2.80
2019-01-09T17:07:52.740Z,2.70
2019-01-09T17:10:21.592Z,2.70
2019-01-09T17:12:50.176Z,2.60
2019-01-09T17:15:20.441Z,2.70
2019-01-09T17:17:49.020Z,2.70
2019-01-09T17:20:28.348Z,2.70
2019-01-09T17:22:57.175Z,2.60
2019-01-09T17:25:25.759Z,2.50
2019-01-09T17:27:54.386Z,2.60
2019-01-09T17:30:25.523Z,2.50
2019-01-09T17:32:54.044Z,2.50
2019-01-09T17:35:22.636Z,2.50
2019-01-09T17:37:51.140Z,2.50
2019-01-09T17:40:22.004Z,2.50
2019-01-09T17:42:50.914Z,2.40
2019-01-09T17:45:19.443Z,2.40
2019-01-09T17:47:48.034Z,2.40
2019-01-09T17:50:19.691Z,2.40
2019-01-09T17:52:48.431Z,2.40
2019-01-09T17:55:16.944Z,2.50
2019-01-09T17:57:45.553Z,2.50
2019-01-09T18:00:17.249Z,2.50
2019-01-09T18:02:45.757Z,2.50
2019-01-09T18:05:14.934Z,2.50
2019-01-09T18:07:43.872Z,2.40
2019-01-09T18:10:23.682Z,2.40
2019-01-09T18:12:52.379Z,2.40
2019-01-09T18:15:22.639Z,2.30
2019-01-09T18:17:51.845Z,2.30
2019-01-09T18:20:23.421Z,2.30
2019-01-09T18:22:52.088Z,2.50
2019-01-09T18:25:25.659Z,2.50
2019-01-09T18:27:54.264Z,2.60
2019-01-09T18:30:27.220Z,2.60
2019-01-09T18:33:01.733Z,2.60
2019-01-09T18:35:35.739Z,2.70
2019-01-09T18:38:16.139Z,2.70
2019-01-09T18:40:59.253Z,2.60
2019-01-09T18:44:05.300Z,2.50
2019-01-09T18:46:59.054Z,2.50
2019-01-09T18:49:30.751Z,2.50
2019-01-09T18:52:10.883Z,2.50
2019-01-09T18:54:39.700Z,2.50
2019-01-09T18:57:08.812Z,2.50
2019-01-09T18:59:37.411Z,2.50
2019-01-09T19:02:06.089Z,2.50
2019-01-09T19:04:34.535Z,2.50
2019-01-09T19:07:05.400Z,2.50
2019-01-09T19:09:34.028Z,2.50
2019-01-09T19:12:02.481Z,2.50
2019-01-09T19:14:31.003Z,2.50
2019-01-09T19:16:59.644Z,2.40
2019-01-09T19:19:28.447Z,2.40
2019-01-09T19:21:56.904Z,2.40
2019-01-09T19:24:25.407Z,2.40
2019-01-09T19:26:53.875Z,2.40
2019-01-09T19:29:22.317Z,2.30
2019-01-09T19:31:51.149Z,2.30
2019-01-09T19:34:19.588Z,2.30
2019-01-09T19:36:48.040Z,2.30
2019-01-09T19:39:16.840Z,2.20
2019-01-09T19:41:45.294Z,2.30
2019-01-09T19:44:13.730Z,2.30
2019-01-09T19:46:42.169Z,2.30
2019-01-09T19:49:10.691Z,2.30
2019-01-09T19:51:39.192Z,2.30
2019-01-09T19:54:07.653Z,2.30
2019-01-09T19:56:36.177Z,2.30
2019-01-09T19:59:04.896Z,2.30
2019-01-09T20:01:33.433Z,2.30
2019-01-09T20:04:01.888Z,2.40
2019-01-09T20:06:30.496Z,2.40
2019-01-09T20:08:59.028Z,2.30
2019-01-09T20:11:27.686Z,2.30
2019-01-09T20:13:56.313Z,2.30
2019-01-09T20:16:24.906Z,2.30
2019-01-09T20:18:53.511Z,2.40
2019-01-09T20:21:22.025Z,2.40
2019-01-09T20:23:50.892Z,2.40
2019-01-09T20:26:19.537Z,2.40
2019-01-09T20:28:48.292Z,2.40
2019-01-09T20:31:17.182Z,2.40
2019-01-09T20:33:45.920Z,2.30
2019-01-09T20:36:14.688Z,2.30
2019-01-09T20:38:43.228Z,2.20
2019-01-09T20:41:11.758Z,2.20
2019-01-09T20:43:40.175Z,2.30
2019-01-09T20:46:08.819Z,2.30
2019-01-09T20:48:38.370Z,2.30
2019-01-09T20:51:07.373Z,2.30
2019-01-09T20:53:35.957Z,2.30
2019-01-09T20:56:05.253Z,2.30
2019-01-09T20:58:33.787Z,2.20
2019-01-09T21:01:02.644Z,2.20
2019-01-09T21:03:31.346Z,2.20
2019-01-09T21:05:59.938Z,2.20
2019-01-09T21:08:28.675Z,2.30
2019-01-09T21:10:57.196Z,2.30
2019-01-09T21:13:25.737Z,2.30
2019-01-09T21:15:54.319Z,2.30
2019-01-09T21:18:22.836Z,2.30
2019-01-09T21:20:51.352Z,2.20
2019-01-09T21:23:19.872Z,2.20
2019-01-09T21:25:48.391Z,2.20
2019-01-09T21:28:16.945Z,2.20
2019-01-09T21:30:45.464Z,2.20
2019-01-09T21:33:13.988Z,2.10
2019-01-09T21:35:42.440Z,2.10
2019-01-09T21:38:11.047Z,2.10
2019-01-09T21:40:39.666Z,2.00
2019-01-09T21:43:08.172Z,2.10
2019-01-09T21:45:36.619Z,2.10
2019-01-09T21:48:05.701Z,2.10
2019-01-09T21:50:34.446Z,2.00
2019-01-09T21:53:02.928Z,1.90
2019-01-09T21:55:31.382Z,1.90
2019-01-09T21:57:59.887Z,1.90
2019-01-09T22:00:28.596Z,1.90
2019-01-09T22:02:57.298Z,2.00
2019-01-09T22:05:26.172Z,2.00
2019-01-09T22:07:54.814Z,2.00
2019-01-09T22:10:26.344Z,2.00
2019-01-09T22:12:54.796Z,1.90
2019-01-09T22:15:24.152Z,1.90
2019-01-09T22:17:52.607Z,1.90
2019-01-09T22:20:21.290Z,1.90
2019-01-09T22:22:49.735Z,1.90
2019-01-09T22:25:18.236Z,1.90
2019-01-09T22:27:46.788Z,1.90
2019-01-09T22:30:23.353Z,1.80
2019-01-09T22:32:52.057Z,1.80
2019-01-09T22:35:20.734Z,1.80
2019-01-09T22:38:08.612Z,1.80
2019-01-09T22:40:37.121Z,1.80
2019-01-09T22:43:05.565Z,1.80
2019-01-09T22:45:34.020Z,1.80
2019-01-09T22:48:02.496Z,1.70
2019-01-09T22:50:31.093Z,1.70
2019-01-09T22:52:59.557Z,1.70
2019-01-09T22:55:28.222Z,1.70
2019-01-09T22:57:56.741Z,1.70
2019-01-09T23:00:40.420Z,1.70
2019-01-09T23:03:11.549Z,1.70
2019-01-09T23:05:40.630Z,1.70
2019-01-09T23:08:09.370Z,1.60
2019-01-09T23:10:38.317Z,1.70
2019-01-09T23:13:06.953Z,1.60
2019-01-09T23:15:35.540Z,1.60
2019-01-09T23:18:04.421Z,1.60
2019-01-09T23:20:32.924Z,1.60
2019-01-09T23:23:01.457Z,1.60
2019-01-09T23:25:29.956Z,1.70
2019-01-09T23:27:58.415Z,1.60
2019-01-09T23:30:26.921Z,1.60
2019-01-09T23:32:55.452Z,1.60
2019-01-09T23:35:24.165Z,1.60
2019-01-09T23:37:52.667Z,1.50
2019-01-09T23:40:21.567Z,1.50
2019-01-09T23:42:50.078Z,1.50
2019-01-09T23:45:18.619Z,1.40
2019-01-09T23:47:47.121Z,1.40
2019-01-09T23:50:15.821Z,1.40
2019-01-09T23:52:47.375Z,1.40
2019-01-09T23:55:16.274Z,1.40
2019-01-09T23:57:44.711Z,1.30
